createdAt,value
2018-01-29T00:00:03.540Z,9.39
2018-01-29T00:02:29.295Z,9.45
2018-01-29T00:04:55.053Z,9.42
2018-01-29T00:07:20.809Z,9.44
2018-01-29T00:09:46.571Z,9.41
2018-01-29T00:12:12.335Z,9.41
2018-01-29T00:14:38.103Z,9.42
2018-01-29T00:17:03.871Z,9.42
2018-01-29T00:19:29.639Z,9.39
2018-01-29T00:21:55.405Z,9.39
2018-01-29T00:24:21.172Z,9.39
2018-01-29T00:26:46.951Z,9.41
2018-01-29T00:29:12.707Z,9.41
2018-01-29T00:31:38.484Z,9.41
2018-01-29T00:34:04.256Z,9.40
2018-01-29T00:36:30.020Z,9.44
2018-01-29T00:38:55.785Z,9.42
2018-01-29T00:41:21.547Z,9.44
2018-01-29T00:43:47.300Z,9.44
2018-01-29T00:46:13.054Z,9.45
2018-01-29T00:48:38.826Z,9.46
2018-01-29T00:51:04.599Z,9.49
2018-01-29T00:53:30.371Z,9.54
2018-01-29T00:55:56.159Z,9.52
2018-01-29T00:58:21.924Z,9.53
2018-01-29T01:00:47.692Z,9.56
2018-01-29T01:03:13.464Z,9.55
2018-01-29T01:05:39.227Z,9.56
2018-01-29T01:08:04.992Z,9.59
2018-01-29T01:10:30.760Z,9.61
2018-01-29T01:12:56.506Z,9.60
2018-01-29T01:15:22.262Z,9.62
2018-01-29T01:17:48.011Z,9.59
2018-01-29T01:20:13.781Z,9.62
2018-01-29T01:22:39.552Z,9.61
2018-01-29T01:25:05.328Z,9.68
2018-01-29T01:27:31.094Z,9.65
2018-01-29T01:29:56.891Z,9.65
2018-01-29T01:32:22.651Z,9.67
2018-01-29T01:34:48.429Z,9.71
2018-01-29T01:37:14.191Z,9.71
2018-01-29T01:39:39.982Z,9.73
2018-01-29T01:42:05.760Z,9.70
2018-01-29T01:44:31.523Z,9.67
2018-01-29T01:46:57.294Z,9.73
2018-01-29T01:49:29.264Z,9.72
2018-01-29T01:51:55.043Z,9.72
2018-01-29T01:54:20.824Z,9.70
2018-01-29T01:56:46.597Z,9.66
2018-01-29T01:59:12.371Z,9.66
2018-01-29T02:01:38.147Z,9.58
2018-01-29T02:04:03.920Z,9.60
2018-01-29T02:06:29.703Z,9.62
2018-01-29T02:08:55.467Z,9.61
2018-01-29T02:11:21.241Z,9.60
2018-01-29T02:13:47.015Z,9.56
2018-01-29T02:16:12.802Z,9.58
2018-01-29T02:18:38.564Z,9.57
2018-01-29T02:21:04.326Z,9.58
2018-01-29T02:23:30.087Z,9.61
2018-01-29T02:25:55.844Z,9.63
2018-01-29T02:28:21.619Z,9.64
2018-01-29T02:30:47.416Z,9.59
2018-01-29T02:33:13.207Z,9.58
2018-01-29T02:35:38.966Z,9.60
2018-01-29T02:38:04.744Z,9.61
2018-01-29T02:40:30.518Z,9.59
2018-01-29T02:42:56.313Z,9.57
2018-01-29T02:45:22.095Z,9.55
2018-01-29T02:47:47.884Z,9.55
2018-01-29T02:50:13.660Z,9.53
2018-01-29T02:52:39.465Z,9.56
2018-01-29T02:55:05.240Z,9.55
2018-01-29T02:57:31.035Z,9.59
2018-01-29T02:59:56.815Z,9.57
2018-01-29T03:02:22.587Z,9.57
2018-01-29T03:04:48.373Z,9.56
2018-01-29T03:07:14.147Z,9.59
2018-01-29T03:09:39.939Z,9.61
2018-01-29T03:12:05.716Z,9.58
2018-01-29T03:14:31.505Z,9.63
2018-01-29T03:16:57.275Z,9.65
2018-01-29T03:19:23.046Z,9.67
2018-01-29T03:21:48.820Z,9.67
2018-01-29T03:24:14.591Z,9.70
2018-01-29T03:26:40.363Z,9.71
2018-01-29T03:29:06.148Z,9.72
2018-01-29T03:31:31.911Z,9.70
2018-01-29T03:33:57.680Z,9.77
2018-01-29T03:36:23.443Z,9.75
2018-01-29T03:38:49.214Z,9.78
2018-01-29T03:41:14.974Z,9.82
2018-01-29T03:43:40.744Z,9.80
2018-01-29T03:46:06.530Z,9.76
2018-01-29T03:48:32.304Z,9.85
2018-01-29T03:50:58.066Z,9.78
2018-01-29T03:53:23.832Z,9.70
2018-01-29T03:55:49.575Z,9.82
2018-01-29T03:58:15.323Z,9.78
2018-01-29T04:00:41.102Z,9.85
2018-01-29T04:03:06.869Z,9.86
2018-01-29T04:05:32.656Z,9.78
2018-01-29T04:07:58.427Z,9.73
2018-01-29T04:10:24.209Z,9.72
2018-01-29T04:12:49.973Z,9.75
2018-01-29T04:15:15.775Z,9.75
2018-01-29T04:17:41.546Z,9.77
2018-01-29T04:20:07.340Z,9.70
2018-01-29T04:22:33.113Z,9.80
2018-01-29T04:24:58.893Z,9.66
2018-01-29T04:27:24.724Z,9.67
2018-01-29T04:29:50.512Z,9.74
2018-01-29T04:32:16.275Z,9.61
2018-01-29T04:34:42.065Z,9.64
2018-01-29T04:37:07.843Z,9.67
2018-01-29T04:39:33.604Z,9.59
2018-01-29T04:41:59.377Z,9.58
2018-01-29T04:44:25.158Z,9.62
2018-01-29T04:46:50.942Z,9.52
2018-01-29T04:49:16.699Z,9.68
2018-01-29T04:51:42.460Z,9.64
2018-01-29T04:54:08.207Z,9.66
2018-01-29T04:56:36.975Z,9.63
2018-01-29T04:59:02.745Z,9.49
2018-01-29T05:01:28.512Z,9.51
2018-01-29T05:03:54.277Z,9.48
2018-01-29T05:06:20.040Z,9.56
2018-01-29T05:08:45.800Z,9.55
2018-01-29T05:11:11.554Z,9.55
2018-01-29T05:13:37.301Z,9.61
2018-01-29T05:16:03.060Z,9.52
2018-01-29T05:18:28.819Z,9.51
2018-01-29T05:20:54.579Z,9.54
2018-01-29T05:23:20.327Z,9.49
2018-01-29T05:25:46.103Z,9.54
2018-01-29T05:28:11.847Z,9.51
2018-01-29T05:30:37.631Z,9.51
2018-01-29T05:33:03.393Z,9.49
2018-01-29T05:35:29.935Z,9.50
2018-01-29T05:40:57.235Z,9.49
2018-01-29T05:43:22.999Z,9.54
2018-01-29T05:45:48.771Z,9.43
2018-01-29T05:48:14.557Z,9.50
2018-01-29T05:50:40.315Z,9.45
2018-01-29T05:53:06.067Z,9.47
2018-01-29T05:55:31.823Z,9.53
2018-01-29T05:57:57.603Z,9.41
2018-01-29T06:00:23.360Z,9.43
2018-01-29T06:02:49.112Z,9.48
2018-01-29T06:05:14.873Z,9.44
2018-01-29T06:07:40.631Z,9.42
2018-01-29T06:10:06.383Z,9.42
2018-01-29T06:12:32.136Z,9.39
2018-01-29T06:14:57.880Z,9.38
2018-01-29T06:17:23.653Z,9.41
2018-01-29T06:19:49.388Z,9.45
2018-01-29T06:22:15.143Z,9.34
2018-01-29T06:24:40.895Z,9.32
2018-01-29T06:27:06.650Z,9.31
2018-01-29T06:29:32.407Z,9.37
2018-01-29T06:31:58.166Z,9.33
2018-01-29T06:34:23.952Z,9.33
2018-01-29T06:36:49.719Z,9.37
2018-01-29T06:39:15.479Z,9.33
2018-01-29T06:41:41.214Z,9.34
2018-01-29T06:44:06.970Z,9.34
2018-01-29T06:46:32.715Z,9.26
2018-01-29T06:48:58.483Z,9.36
2018-01-29T06:51:24.245Z,9.30
2018-01-29T06:53:50.023Z,9.34
2018-01-29T06:56:16.639Z,9.37
2018-01-29T06:58:42.394Z,9.41
2018-01-29T07:01:08.148Z,9.36
2018-01-29T07:03:33.895Z,9.34
2018-01-29T07:05:59.635Z,9.33
2018-01-29T07:08:25.403Z,9.45
2018-01-29T07:10:51.154Z,9.35
2018-01-29T07:13:16.912Z,9.33
2018-01-29T07:15:42.667Z,9.35
2018-01-29T07:18:08.424Z,9.40
2018-01-29T07:20:34.175Z,9.36
2018-01-29T07:22:59.919Z,9.39
2018-01-29T07:25:25.665Z,9.38
2018-01-29T07:27:51.420Z,9.34
2018-01-29T07:30:17.202Z,9.43
2018-01-29T07:32:42.967Z,9.36
2018-01-29T07:35:08.734Z,9.38
2018-01-29T07:37:34.505Z,9.36
2018-01-29T07:40:00.267Z,9.27
2018-01-29T07:42:26.025Z,9.31
2018-01-29T07:44:51.792Z,9.36
2018-01-29T07:47:17.560Z,9.36
2018-01-29T07:49:43.343Z,9.37
2018-01-29T07:52:09.106Z,9.38
2018-01-29T07:54:34.877Z,9.34
2018-01-29T07:57:00.652Z,9.28
2018-01-29T07:59:26.436Z,9.26
2018-01-29T08:01:52.207Z,9.24
2018-01-29T08:04:17.983Z,9.20
2018-01-29T08:06:43.756Z,9.31
2018-01-29T08:09:09.519Z,9.23
2018-01-29T08:11:35.292Z,9.29
2018-01-29T08:14:01.065Z,9.35
2018-01-29T08:16:26.869Z,9.39
2018-01-29T08:18:52.623Z,9.41
2018-01-29T08:21:18.401Z,9.37
2018-01-29T08:23:44.163Z,9.37
2018-01-29T08:26:09.944Z,9.42
2018-01-29T08:28:35.719Z,9.51
2018-01-29T08:31:01.500Z,9.40
2018-01-29T08:33:27.264Z,9.51
2018-01-29T08:35:53.105Z,9.57
2018-01-29T08:38:18.843Z,9.49
2018-01-29T08:40:44.651Z,9.57
2018-01-29T08:43:10.424Z,9.54
2018-01-29T08:45:36.204Z,9.55
2018-01-29T08:48:01.978Z,9.60
2018-01-29T08:50:27.744Z,9.63
2018-01-29T08:52:53.522Z,9.68
2018-01-29T08:55:19.285Z,9.58
2018-01-29T08:57:45.060Z,9.57
2018-01-29T09:00:10.832Z,9.58
2018-01-29T09:02:36.620Z,9.55
2018-01-29T09:05:02.387Z,9.57
2018-01-29T09:07:28.167Z,9.60
2018-01-29T09:09:53.933Z,9.61
2018-01-29T09:12:19.716Z,9.63
2018-01-29T09:14:45.488Z,9.55
2018-01-29T09:17:11.244Z,9.50
2018-01-29T09:19:37.008Z,9.43
2018-01-29T09:22:02.780Z,9.38
2018-01-29T09:24:28.557Z,9.28
2018-01-29T09:26:54.327Z,9.18
2018-01-29T09:29:20.119Z,9.10
2018-01-29T09:31:45.876Z,9.05
2018-01-29T09:34:11.633Z,9.01
2018-01-29T09:36:37.384Z,8.95
2018-01-29T09:39:03.168Z,8.92
2018-01-29T09:41:28.920Z,8.86
2018-01-29T09:43:54.684Z,8.87
2018-01-29T09:46:20.456Z,8.84
2018-01-29T09:48:46.231Z,8.80
2018-01-29T09:51:11.979Z,8.79
2018-01-29T09:53:37.751Z,8.75
2018-01-29T09:56:03.516Z,8.75
2018-01-29T09:58:29.292Z,8.72
2018-01-29T10:00:55.052Z,8.71
2018-01-29T10:03:20.813Z,8.70
2018-01-29T10:05:46.609Z,8.68
2018-01-29T10:08:12.368Z,8.68
2018-01-29T10:10:38.127Z,8.68
2018-01-29T10:13:03.883Z,8.66
2018-01-29T10:15:29.635Z,8.70
2018-01-29T10:17:55.381Z,8.70
2018-01-29T10:20:21.143Z,8.68
2018-01-29T10:22:46.907Z,8.71
2018-01-29T10:25:12.667Z,8.72
2018-01-29T10:27:38.423Z,8.77
2018-01-29T10:30:04.199Z,8.78
2018-01-29T10:32:29.955Z,8.78
2018-01-29T10:34:55.716Z,8.79
2018-01-29T10:37:21.483Z,8.79
2018-01-29T10:39:47.241Z,8.79
2018-01-29T10:42:12.995Z,8.79
2018-01-29T10:44:38.740Z,8.82
2018-01-29T10:47:04.499Z,8.80
2018-01-29T10:49:30.242Z,8.79
2018-01-29T10:51:56.023Z,8.80
2018-01-29T10:54:21.786Z,8.83
2018-01-29T10:56:47.549Z,8.81
2018-01-29T10:59:13.311Z,8.81
2018-01-29T11:01:45.230Z,8.79
2018-01-29T11:04:11.004Z,8.79
2018-01-29T11:06:36.751Z,8.76
2018-01-29T11:09:02.507Z,8.74
2018-01-29T11:11:28.262Z,8.73
2018-01-29T11:13:54.003Z,8.69
2018-01-29T11:16:19.747Z,8.71
2018-01-29T11:18:45.514Z,8.69
2018-01-29T11:21:11.283Z,8.70
2018-01-29T11:23:37.044Z,8.70
2018-01-29T11:26:02.799Z,8.69
2018-01-29T11:28:28.555Z,8.69
2018-01-29T11:30:54.324Z,8.71
2018-01-29T11:33:20.095Z,8.71
2018-01-29T11:35:45.856Z,8.75
2018-01-29T11:38:11.617Z,8.77
2018-01-29T11:40:37.379Z,8.78
2018-01-29T11:43:03.159Z,8.82
2018-01-29T11:45:28.921Z,8.83
2018-01-29T11:47:54.684Z,8.84
2018-01-29T11:50:20.445Z,8.85
2018-01-29T11:52:46.205Z,8.85
2018-01-29T11:55:11.969Z,8.85
2018-01-29T11:57:37.749Z,8.84
2018-01-29T12:00:03.517Z,8.83
2018-01-29T12:02:29.274Z,8.83
2018-01-29T12:04:55.043Z,8.83
2018-01-29T12:07:20.848Z,8.81
2018-01-29T12:09:46.595Z,8.80
2018-01-29T12:12:12.356Z,8.78
2018-01-29T12:14:38.136Z,8.77
2018-01-29T12:17:03.909Z,8.77
2018-01-29T12:19:29.679Z,8.76
2018-01-29T12:21:55.454Z,8.75
2018-01-29T12:24:21.236Z,8.76
2018-01-29T12:26:47.000Z,8.74
2018-01-29T12:29:12.781Z,8.75
2018-01-29T12:31:38.534Z,8.75
2018-01-29T12:34:04.276Z,8.76
2018-01-29T12:36:30.067Z,8.78
2018-01-29T12:38:55.988Z,8.79
2018-01-29T12:41:21.762Z,8.76
2018-01-29T12:43:47.523Z,8.80
2018-01-29T12:46:13.271Z,8.77
2018-01-29T12:48:39.220Z,8.74
2018-01-29T12:51:04.991Z,8.71
2018-01-29T12:53:30.751Z,8.70
2018-01-29T12:55:56.524Z,8.68
2018-01-29T12:58:22.292Z,8.64
2018-01-29T13:00:48.059Z,8.65
2018-01-29T13:03:13.819Z,8.63
2018-01-29T13:05:39.582Z,8.62
2018-01-29T13:08:05.331Z,8.58
2018-01-29T13:10:31.093Z,8.56
2018-01-29T13:12:56.852Z,8.55
2018-01-29T13:15:22.612Z,8.52
2018-01-29T13:17:48.380Z,8.48
2018-01-29T13:20:14.143Z,8.47
2018-01-29T13:22:39.891Z,8.46
2018-01-29T13:25:05.634Z,8.45
2018-01-29T13:27:31.399Z,8.44
2018-01-29T13:29:57.180Z,8.40
2018-01-29T13:32:22.946Z,8.41
2018-01-29T13:34:48.732Z,8.38
2018-01-29T13:37:14.520Z,8.33
2018-01-29T13:39:40.284Z,8.32
2018-01-29T13:42:06.059Z,8.30
2018-01-29T13:44:31.811Z,8.27
2018-01-29T13:46:57.583Z,8.23
2018-01-29T13:49:23.336Z,8.24
2018-01-29T13:51:49.103Z,8.21
2018-01-29T13:54:14.867Z,8.17
2018-01-29T13:56:40.623Z,8.15
2018-01-29T13:59:06.417Z,8.15
2018-01-29T14:01:32.187Z,8.11
2018-01-29T14:03:57.953Z,8.09
2018-01-29T14:06:23.779Z,8.06
2018-01-29T14:08:49.538Z,8.03
2018-01-29T14:11:15.327Z,8.00
2018-01-29T14:13:41.087Z,7.97
2018-01-29T14:16:06.854Z,7.97
2018-01-29T14:18:32.635Z,7.91
2018-01-29T14:20:58.393Z,7.86
2018-01-29T14:23:24.155Z,7.82
2018-01-29T14:25:49.967Z,7.78
2018-01-29T14:28:15.699Z,7.75
2018-01-29T14:30:41.472Z,7.71
2018-01-29T14:33:07.252Z,7.60
2018-01-29T14:35:33.009Z,7.52
2018-01-29T14:37:58.784Z,7.50
2018-01-29T14:40:24.544Z,7.44
2018-01-29T14:42:50.331Z,7.36
2018-01-29T14:45:16.086Z,7.32
2018-01-29T14:47:41.852Z,7.27
2018-01-29T14:50:07.635Z,7.27
2018-01-29T14:52:33.399Z,7.22
2018-01-29T14:54:59.176Z,7.16
2018-01-29T14:57:24.931Z,7.13
2018-01-29T14:59:50.704Z,7.10
2018-01-29T15:02:16.472Z,7.08
2018-01-29T15:04:42.245Z,7.09
2018-01-29T15:07:08.015Z,6.95
2018-01-29T15:09:33.771Z,6.85
2018-01-29T15:11:59.527Z,6.64
2018-01-29T15:14:25.307Z,6.54
2018-01-29T15:16:51.075Z,6.51
2018-01-29T15:19:16.857Z,6.50
2018-01-29T15:21:42.619Z,6.48
2018-01-29T15:24:08.403Z,6.45
2018-01-29T15:26:34.175Z,6.39
2018-01-29T15:28:59.932Z,6.37
2018-01-29T15:31:25.698Z,6.31
2018-01-29T15:33:51.455Z,6.27
2018-01-29T15:36:17.207Z,6.22
2018-01-29T15:38:42.943Z,6.20
2018-01-29T15:41:08.707Z,6.18
2018-01-29T15:43:34.459Z,6.14
2018-01-29T15:46:00.211Z,6.12
2018-01-29T15:48:25.960Z,6.10
2018-01-29T15:50:51.742Z,6.12
2018-01-29T15:53:17.518Z,6.11
2018-01-29T15:55:43.312Z,6.07
2018-01-29T15:58:09.054Z,6.10
2018-01-29T16:00:34.859Z,6.09
2018-01-29T16:03:00.607Z,6.08
2018-01-29T16:05:26.373Z,6.05
2018-01-29T16:07:52.146Z,6.06
2018-01-29T16:10:18.032Z,6.02
2018-01-29T16:12:43.855Z,6.00
2018-01-29T16:15:09.600Z,6.06
2018-01-29T16:17:35.360Z,5.98
2018-01-29T16:20:01.112Z,5.96
2018-01-29T16:22:26.871Z,5.93
2018-01-29T16:24:52.626Z,5.97
2018-01-29T16:27:18.394Z,5.90
2018-01-29T16:29:44.182Z,5.90
2018-01-29T16:32:09.951Z,5.93
2018-01-29T16:34:35.706Z,5.89
2018-01-29T16:37:01.471Z,5.90
2018-01-29T16:39:27.220Z,5.86
2018-01-29T16:41:53.040Z,5.85
2018-01-29T16:44:18.808Z,5.89
2018-01-29T16:46:44.567Z,5.89
2018-01-29T16:49:10.315Z,5.88
2018-01-29T16:51:36.092Z,5.86
2018-01-29T16:54:01.851Z,5.87
2018-01-29T16:56:27.654Z,5.94
2018-01-29T16:58:53.387Z,5.89
2018-01-29T17:01:19.164Z,5.88
2018-01-29T17:03:44.931Z,5.90
2018-01-29T17:06:10.695Z,5.90
2018-01-29T17:08:36.471Z,5.90
2018-01-29T17:11:02.220Z,5.93
2018-01-29T17:13:27.984Z,5.93
2018-01-29T17:15:53.747Z,6.07
2018-01-29T17:18:19.514Z,6.05
2018-01-29T17:20:45.276Z,6.07
2018-01-29T17:23:11.043Z,6.11
2018-01-29T17:25:36.827Z,6.10
2018-01-29T17:28:02.607Z,6.13
2018-01-29T17:30:28.403Z,6.07
2018-01-29T17:32:54.169Z,6.15
2018-01-29T17:35:19.927Z,6.04
2018-01-29T17:37:45.707Z,6.03
2018-01-29T17:40:11.463Z,6.11
2018-01-29T17:42:37.232Z,6.04
2018-01-29T17:45:03.022Z,6.08
2018-01-29T17:47:28.784Z,6.10
2018-01-29T17:49:54.563Z,6.05
2018-01-29T17:52:20.314Z,6.12
2018-01-29T17:54:46.090Z,6.04
2018-01-29T17:57:11.844Z,6.00
2018-01-29T17:59:37.607Z,6.05
2018-01-29T18:02:03.376Z,6.01
2018-01-29T18:04:29.168Z,6.00
2018-01-29T18:06:54.927Z,5.93
2018-01-29T18:09:20.720Z,5.96
2018-01-29T18:11:46.484Z,5.96
2018-01-29T18:14:12.272Z,5.92
2018-01-29T18:16:38.059Z,5.99
2018-01-29T18:19:03.839Z,5.99
2018-01-29T18:21:29.599Z,6.03
2018-01-29T18:23:55.359Z,6.01
2018-01-29T18:26:21.144Z,5.99
2018-01-29T18:28:46.943Z,5.93
2018-01-29T18:31:12.760Z,5.94
2018-01-29T18:33:38.528Z,5.99
2018-01-29T18:36:04.312Z,6.04
2018-01-29T18:38:30.084Z,6.04
2018-01-29T18:40:55.863Z,6.05
2018-01-29T18:43:21.644Z,6.09
2018-01-29T18:45:47.411Z,6.07
2018-01-29T18:48:13.180Z,6.12
2018-01-29T18:50:38.945Z,6.12
2018-01-29T18:53:04.755Z,6.08
2018-01-29T18:55:30.540Z,6.08
2018-01-29T18:57:56.319Z,6.07
2018-01-29T19:00:22.076Z,6.04
2018-01-29T19:02:47.847Z,6.02
2018-01-29T19:05:13.615Z,6.03
2018-01-29T19:07:39.395Z,5.98
2018-01-29T19:10:05.138Z,5.93
2018-01-29T19:12:30.891Z,5.85
2018-01-29T19:14:56.656Z,5.84
2018-01-29T19:17:22.426Z,5.94
2018-01-29T19:19:48.260Z,5.99
2018-01-29T19:22:14.027Z,5.93
2018-01-29T19:24:39.778Z,5.87
2018-01-29T19:27:05.550Z,5.84
2018-01-29T19:29:31.358Z,5.82
2018-01-29T19:31:57.100Z,5.78
2018-01-29T19:34:22.850Z,5.72
2018-01-29T19:36:48.758Z,5.73
2018-01-29T19:39:14.515Z,5.68
2018-01-29T19:41:40.282Z,5.80
2018-01-29T19:44:06.044Z,5.71
2018-01-29T19:46:31.811Z,5.76
2018-01-29T19:48:57.586Z,5.73
2018-01-29T19:51:23.332Z,5.62
2018-01-29T19:53:49.091Z,5.71
2018-01-29T19:56:14.847Z,5.54
2018-01-29T19:58:40.619Z,5.62
2018-01-29T20:01:06.399Z,5.65
2018-01-29T20:03:32.182Z,5.55
2018-01-29T20:05:58.114Z,5.55
2018-01-29T20:08:23.875Z,5.53
2018-01-29T20:10:49.631Z,5.50
2018-01-29T20:13:15.405Z,5.59
2018-01-29T20:15:41.171Z,5.45
2018-01-29T20:18:06.960Z,5.42
2018-01-29T20:20:32.724Z,5.36
2018-01-29T20:22:58.491Z,5.34
2018-01-29T20:25:24.258Z,5.23
2018-01-29T20:27:50.035Z,5.33
2018-01-29T20:30:15.871Z,5.20
2018-01-29T20:32:41.627Z,5.19
2018-01-29T20:35:07.402Z,5.17
2018-01-29T20:37:33.159Z,5.27
2018-01-29T20:39:58.931Z,5.21
2018-01-29T20:42:24.746Z,5.22
2018-01-29T20:44:50.503Z,5.32
2018-01-29T20:47:16.275Z,5.39
2018-01-29T20:49:42.038Z,5.31
2018-01-29T20:52:07.819Z,5.38
2018-01-29T20:54:33.579Z,5.43
2018-01-29T20:56:59.343Z,5.59
2018-01-29T20:59:25.128Z,5.53
2018-01-29T21:01:50.883Z,5.48
2018-01-29T21:04:16.652Z,5.40
2018-01-29T21:06:42.456Z,5.43
2018-01-29T21:09:08.182Z,5.33
2018-01-29T21:11:33.959Z,5.29
2018-01-29T21:13:59.727Z,5.25
2018-01-29T21:16:25.498Z,5.27
2018-01-29T21:18:51.247Z,5.20
2018-01-29T21:21:16.998Z,5.22
2018-01-29T21:23:42.751Z,5.13
2018-01-29T21:26:08.527Z,5.16
2018-01-29T21:28:34.279Z,5.12
2018-01-29T21:31:00.060Z,5.08
2018-01-29T21:33:25.810Z,5.06
2018-01-29T21:35:51.591Z,5.12
2018-01-29T21:38:17.352Z,5.07
2018-01-29T21:40:43.123Z,5.20
2018-01-29T21:43:08.888Z,5.18
2018-01-29T21:45:34.704Z,5.25
2018-01-29T21:48:02.105Z,5.20
2018-01-29T21:50:27.952Z,5.30
2018-01-29T21:52:53.716Z,5.24
2018-01-29T21:55:19.471Z,5.25
2018-01-29T21:57:45.251Z,5.20
2018-01-29T22:00:11.010Z,5.08
2018-01-29T22:02:36.869Z,5.03
2018-01-29T22:05:02.630Z,5.07
2018-01-29T22:07:28.556Z,4.97
2018-01-29T22:09:54.331Z,5.00
2018-01-29T22:12:20.095Z,5.02
2018-01-29T22:14:45.848Z,4.91
2018-01-29T22:17:11.621Z,4.96
2018-01-29T22:19:37.367Z,4.90
2018-01-29T22:22:03.112Z,4.82
2018-01-29T22:24:28.896Z,4.91
2018-01-29T22:26:54.811Z,4.84
2018-01-29T22:29:20.587Z,4.80
2018-01-29T22:31:46.350Z,4.77
2018-01-29T22:34:12.122Z,4.71
2018-01-29T22:36:37.894Z,4.87
2018-01-29T22:39:03.671Z,4.91
2018-01-29T22:41:29.423Z,4.94
2018-01-29T22:43:55.225Z,4.93
2018-01-29T22:46:20.979Z,4.85
2018-01-29T22:48:46.739Z,4.81
2018-01-29T22:51:12.503Z,4.90
2018-01-29T22:53:38.271Z,4.87
2018-01-29T22:56:04.042Z,5.01
2018-01-29T22:58:29.876Z,4.83
2018-01-29T23:00:55.645Z,4.97
2018-01-29T23:03:21.424Z,4.92
2018-01-29T23:05:47.183Z,4.90
2018-01-29T23:08:13.018Z,4.91
2018-01-29T23:10:38.860Z,4.79
2018-01-29T23:13:04.660Z,4.86
2018-01-29T23:15:30.584Z,4.90
2018-01-29T23:17:56.586Z,5.08
2018-01-29T23:20:22.461Z,5.09
2018-01-29T23:22:48.324Z,5.24
2018-01-29T23:25:14.104Z,5.10
2018-01-29T23:27:39.922Z,5.16
2018-01-29T23:30:05.700Z,5.00
2018-01-29T23:32:31.523Z,5.05
2018-01-29T23:34:57.541Z,4.89
2018-01-29T23:37:23.307Z,4.89
2018-01-29T23:39:49.071Z,4.79
2018-01-29T23:42:14.885Z,4.84
2018-01-29T23:44:40.650Z,4.92
2018-01-29T23:47:06.408Z,4.93
2018-01-29T23:49:32.178Z,4.90
2018-01-29T23:51:58.039Z,4.79
2018-01-29T23:54:23.807Z,4.82
2018-01-29T23:56:49.610Z,4.84
2018-01-29T23:59:15.579Z,4.80
